Rochester, MA (02770)

7:48 PM EST on February 19, 2017 (GMT -0500)
Rochester | | Change Station
Active Advisory: Small Craft Advisory

Elev 24 ft 41.74 °N, 70.83 °W | Updated 17 seconds ago

Clear
Clear
41.9 °F
Feels Like 42 °F
N
0.0
Wind Variable Wind from ESE
Gusts 0.0 mph

Today
High -- | Low -- °F
--% Chance of Precip.
Yesterday
High -- | Low -- °F
Precip. -- in
Pressure 29.82 in
Visibility 10.0 miles
Clouds Clear
Windchill 42 °F
Dew Point 34 °F
Humidity 73%
Rainfall 0.00 in
Snow Depth Not available.
6:32 AM 5:21 PM
Last Quarter, 39% visible
METAR KEWB 192353Z 28010KT 10SM CLR 11/M02 A2982 RMK AO2 SLP096 T01111017 10178 20072 51035
Pressure 29.82 in
Visibility 10.0 miles
Clouds Clear
Windchill 42 °F
Dew Point 34 °F
Humidity 73%
Rainfall 0.00 in
Snow Depth Not available.
6:32 AM 5:21 PM
Last Quarter, 39% visible
METAR KEWB 192353Z 28010KT 10SM CLR 11/M02 A2982 RMK AO2 SLP096 T01111017 10178 20072 51035

Get Your Daily Forecast Email!

Thanks for signing up!

Be on the lookout for a verification email in your inbox.

You'll start receiving the daily forecast at 8 AM.

×

10-Day Weather Forecast

Almanac

Astronomy

Feb. 19, 2017 Rise Set
Actual Time
Civil Twilight
Nautical Twilight
Astronomical Twilight
Moon
Length of Visible Light
Length of Day
Tomorrow will be .
, % of the Moon is Illuminated

Today's Extremes

State Highs State Lows

Community

WunderPhotos

Upload Photos

1,962,540 photos uploaded!

WunderBlog® & News

Nearby

Air Quality

  Air Quality AQ Index Pollutant
Not available.

Snow Depth

Station Depth Elevation

Earthquake Activity

City Distance Mag. Time & Date
Minimum magnitude displayed is 2.5.

Coastal Water Temperatures

Place Temperature

Stations

Nearby Weather Stations

Station Location Temp. Windchill Dew Point Humidity Wind Precip. Elev Updated Type
                   

Watches & Warnings

Small Craft Advisory
Issued: 3:34 PM EST Feb. 19, 2017 – National Weather Service

... Small Craft Advisory now in effect from 1 am to 1 PM EST
Monday...

* winds and seas... northwest winds 10 to 15 kt with gusts up to
25 kt. Seas 1 to 3 feet.

Precautionary/preparedness actions...

A Small Craft Advisory means that wind speeds of 25 to 33 knots
are expected to produce hazardous wave conditions to small craft.
Inexperienced mariners... especially those operating smaller
vessels should avoid navigating in these conditions.